Time;durP1;ratioP1;P1;durP2;ratioP2;P2;SDS_P1;SDS_P2;PMS_P1;PMS_P2;Temp;Humidity;BMP_temperature;BMP_pressure;BME280_temperature;BME280_humidity;BME280_pressure;Samples;Min_cycle;Max_cycle;Signal;HPM_P1;HPM_P2
2021/01/27 00:00:21;;;;;;;10.95;5.63;;;;;;;6.87;55.32;101564.59;4954290;28;124155;-71
2021/01/27 00:02:49;;;;;;;11.00;5.25;;;;;;;6.89;55.75;101568.06;4958045;28;123853;-71
2021/01/27 00:05:23;;;;;;;8.63;5.40;;;;;;;6.88;55.50;101555.81;4933345;28;113260;-71
2021/01/27 00:07:50;;;;;;;12.15;5.60;;;;;;;6.90;55.49;101554.00;4959307;28;114053;-71
2021/01/27 00:10:16;;;;;;;9.50;5.70;;;;;;;6.88;55.49;101545.28;4967773;28;124427;-71
2021/01/27 00:12:43;;;;;;;12.90;5.30;;;;;;;6.87;55.13;101546.16;4965418;28;124094;-71
2021/01/27 00:15:14;;;;;;;8.80;5.45;;;;;;;6.87;55.42;101546.16;4955267;28;114513;-70
2021/01/27 00:17:41;;;;;;;9.27;5.35;;;;;;;6.86;55.24;101534.75;4942135;28;113941;-70
2021/01/27 00:20:10;;;;;;;11.27;5.38;;;;;;;6.87;55.27;101530.34;4949380;28;122948;-71
2021/01/27 00:22:37;;;;;;;10.60;5.50;;;;;;;6.87;55.25;101525.09;4968592;28;123207;-71
2021/01/27 00:25:06;;;;;;;9.30;5.10;;;;;;;6.85;55.11;101532.16;4956262;28;114199;-71
2021/01/27 00:27:32;;;;;;;7.70;5.05;;;;;;;6.83;55.31;101530.41;4962743;28;114542;-71
2021/01/27 00:29:59;;;;;;;8.90;5.20;;;;;;;6.82;54.88;101549.75;4966734;28;124030;-71
2021/01/27 00:32:28;;;;;;;7.60;4.65;;;;;;;6.81;54.89;101540.09;4966766;28;122815;-71
2021/01/27 00:34:55;;;;;;;7.78;4.97;;;;;;;6.79;54.88;101543.66;4961459;28;114565;-71
2021/01/27 00:37:22;;;;;;;11.48;5.63;;;;;;;6.77;55.17;101546.31;4948374;28;113412;-71
2021/01/27 00:39:49;;;;;;;8.45;4.80;;;;;;;6.76;55.18;101543.69;4953684;28;123816;-71
2021/01/27 00:42:16;;;;;;;9.23;5.53;;;;;;;6.74;55.01;101546.38;4951006;28;123922;-71
2021/01/27 00:44:42;;;;;;;7.88;4.93;;;;;;;6.74;55.17;101535.84;4964036;28;115166;-70
2021/01/27 00:47:27;;;;;;;8.85;5.05;;;;;;;6.74;54.94;101530.59;4962980;28;114596;-71
2021/01/27 00:49:54;;;;;;;8.13;5.13;;;;;;;6.73;55.00;101534.09;4973432;28;124185;-71
2021/01/27 00:52:23;;;;;;;9.82;5.28;;;;;;;6.70;54.81;101534.16;4953375;28;123726;-70
2021/01/27 00:54:50;;;;;;;7.65;5.30;;;;;;;6.68;55.01;101535.94;4960757;28;112666;-71
2021/01/27 00:57:18;;;;;;;7.88;5.20;;;;;;;6.69;55.14;101542.97;4965867;28;113898;-71
2021/01/27 00:59:44;;;;;;;8.60;5.47;;;;;;;6.69;55.07;101550.84;4959443;28;123189;-71
2021/01/27 01:02:14;;;;;;;10.65;5.18;;;;;;;6.69;55.12;101537.69;4960566;28;122278;-71
2021/01/27 01:04:49;;;;;;;8.57;5.40;;;;;;;6.69;54.99;101542.97;4967838;28;114411;-71
2021/01/27 01:07:15;;;;;;;11.38;5.22;;;;;;;6.68;55.09;101535.09;4970563;28;113561;-71
2021/01/27 01:09:42;;;;;;;7.70;5.07;;;;;;;6.67;54.92;101531.59;4954815;28;124294;-71
2021/01/27 01:12:09;;;;;;;8.75;5.30;;;;;;;6.68;55.25;101530.69;4970577;28;124131;-71
2021/01/27 01:14:35;;;;;;;9.85;5.28;;;;;;;6.68;55.16;101524.56;4955229;28;113826;-71
2021/01/27 01:17:02;;;;;;;7.60;5.07;;;;;;;6.67;54.84;101528.97;4973844;28;114304;-70
2021/01/27 01:19:28;;;;;;;9.07;4.93;;;;;;;6.69;54.99;101527.16;4968286;28;123931;-71
2021/01/27 01:21:55;;;;;;;9.15;5.30;;;;;;;6.69;54.88;101511.38;4955893;28;122835;-71
2021/01/27 01:24:21;;;;;;;6.53;4.80;;;;;;;6.70;54.74;101512.22;4967095;28;113980;-71
2021/01/27 01:26:48;;;;;;;9.40;4.72;;;;;;;6.71;54.91;101509.56;4968460;28;114088;-71
2021/01/27 01:29:16;;;;;;;7.60;4.78;;;;;;;6.70;55.00;101499.94;4966421;28;124101;-71
2021/01/27 01:31:43;;;;;;;9.02;4.90;;;;;;;6.72;54.73;101495.50;4952619;28;124035;-70
2021/01/27 01:34:10;;;;;;;8.18;4.60;;;;;;;6.73;54.87;101492.00;4968942;28;115756;-71
2021/01/27 01:36:36;;;;;;;7.18;4.35;;;;;;;6.73;54.89;101492.00;4973298;28;115624;-71
2021/01/27 01:39:03;;;;;;;7.30;4.60;;;;;;;6.72;54.73;101495.50;4954783;28;123854;-71
2021/01/27 01:41:29;;;;;;;7.32;4.25;;;;;;;6.72;54.98;101474.44;4963603;28;123693;-71
2021/01/27 01:43:56;;;;;;;8.10;4.70;;;;;;;6.73;54.81;101470.94;4966946;28;114579;-71
2021/01/27 01:46:24;;;;;;;7.50;4.65;;;;;;;6.72;54.87;101463.91;4967851;28;114402;-71
2021/01/27 01:48:55;;;;;;;7.25;4.60;;;;;;;6.72;54.89;101469.19;4973336;28;124183;-71
2021/01/27 01:51:30;;;;;;;10.07;4.65;;;;;;;6.73;54.74;101454.28;4972819;28;123934;-71
2021/01/27 01:54:25;;;;;;;8.60;4.60;;;;;;;6.72;54.71;101458.66;4964920;28;114057;-71
2021/01/27 01:56:56;;;;;;;6.13;3.88;;;;;;;6.72;54.81;101440.22;4964876;28;113746;-71
2021/01/27 01:59:23;;;;;;;7.05;4.10;;;;;;;6.71;54.95;101435.00;4965162;28;124505;-71
2021/01/27 02:01:57;;;;;;;8.30;4.07;;;;;;;6.73;54.88;101439.34;4968482;28;124486;-71
2021/01/27 02:04:30;;;;;;;7.45;4.05;;;;;;;6.73;54.96;101434.06;4959238;28;113402;-71
2021/01/27 02:06:57;;;;;;;5.43;3.80;;;;;;;6.72;55.04;101421.78;4967574;28;114340;-71
2021/01/27 02:09:23;;;;;;;8.13;3.58;;;;;;;6.72;55.47;101424.44;4952380;28;124460;-71
2021/01/27 02:12:29;;;;;;;5.55;3.60;;;;;;;6.71;55.33;101435.88;4969867;28;124735;-71
2021/01/27 02:15:28;;;;;;;5.32;3.42;;;;;;;6.72;55.36;101427.06;4934010;28;113039;-71
2021/01/27 02:18:03;;;;;;;6.68;3.85;;;;;;;6.71;55.40;101414.81;4906506;28;113833;-71
2021/01/27 02:20:39;;;;;;;5.55;3.78;;;;;;;6.69;55.63;101406.09;4968224;28;124199;-71
2021/01/27 02:23:24;;;;;;;8.60;4.10;;;;;;;6.70;55.57;101402.53;4966672;28;123686;-71
2021/01/27 02:25:54;;;;;;;6.78;3.08;;;;;;;6.68;55.55;101393.81;4951582;28;114415;-71
2021/01/27 02:28:30;;;;;;;5.68;3.25;;;;;;;6.66;55.36;101379.81;4967077;28;114859;-71
2021/01/27 02:31:12;;;;;;;7.90;3.35;;;;;;;6.63;55.43;101372.00;4961839;28;123602;-70
2021/01/27 02:33:51;;;;;;;4.97;3.33;;;;;;;6.63;55.62;101369.38;4956827;28;123339;-73
2021/01/27 02:36:40;;;;;;;7.00;3.15;;;;;;;6.59;55.56;101372.94;4961061;28;114257;-71
2021/01/27 02:39:17;;;;;;;7.35;3.40;;;;;;;6.57;55.74;101364.19;4961682;28;114587;-70
2021/01/27 02:42:03;;;;;;;5.38;3.33;;;;;;;6.55;55.83;101355.47;4949334;28;123900;-71
2021/01/27 02:44:39;;;;;;;4.93;3.40;;;;;;;6.53;55.86;101346.75;4952917;28;124394;-70
2021/01/27 02:47:15;;;;;;;5.55;3.30;;;;;;;6.53;55.79;101346.75;4955252;28;114520;-70
2021/01/27 02:49:53;;;;;;;4.30;2.80;;;;;;;6.50;55.86;101344.16;4956145;28;113928;-70
2021/01/27 02:52:25;;;;;;;7.10;3.10;;;;;;;6.48;55.91;101348.59;4952750;28;123268;-70
2021/01/27 02:55:20;;;;;;;4.55;3.00;;;;;;;6.46;55.99;101355.66;4951761;28;123155;-70
2021/01/27 02:58:12;;;;;;;4.63;2.65;;;;;;;6.43;56.26;101341.66;4947452;28;113106;-70
2021/01/27 03:00:43;;;;;;;6.28;3.25;;;;;;;6.43;56.35;101325.88;4951519;28;113886;-70
2021/01/27 03:03:19;;;;;;;6.82;3.72;;;;;;;6.41;56.31;101332.94;4953790;28;124631;-70
2021/01/27 03:05:50;;;;;;;4.93;3.20;;;;;;;6.41;56.19;101317.16;4961477;28;123178;-70
2021/01/27 03:08:20;;;;;;;4.07;2.97;;;;;;;6.42;56.36;101303.13;4954894;28;114210;-71
2021/01/27 03:10:58;;;;;;;6.68;3.35;;;;;;;6.41;56.64;101280.31;4954704;28;112982;-71
2021/01/27 03:13:25;;;;;;;5.43;2.88;;;;;;;6.42;56.22;101266.28;4953883;28;124335;-71
2021/01/27 03:15:57;;;;;;;3.88;3.13;;;;;;;6.40;56.39;101273.34;4938324;28;123431;-71
2021/01/27 03:18:29;;;;;;;4.30;3.03;;;;;;;6.38;56.28;101275.09;4955112;28;115593;-71
2021/01/27 03:21:01;;;;;;;6.22;3.30;;;;;;;6.37;56.53;101286.56;4953345;28;114437;-71
2021/01/27 03:23:48;;;;;;;5.72;2.72;;;;;;;6.36;56.43;101287.44;4952427;28;124077;-70
2021/01/27 03:26:24;;;;;;;5.45;3.00;;;;;;;6.35;56.70;101285.72;4952209;28;123444;-71
2021/01/27 03:29:01;;;;;;;5.93;3.22;;;;;;;6.35;56.64;101288.34;4955437;28;114601;-70
2021/01/27 03:31:28;;;;;;;4.53;2.90;;;;;;;6.34;56.56;101299.75;4962929;28;114362;-71
2021/01/27 03:34:05;;;;;;;5.15;3.03;;;;;;;6.35;56.68;101290.97;4951538;28;123462;-71
2021/01/27 03:36:47;;;;;;;4.15;2.92;;;;;;;6.35;56.75;101285.72;4951569;28;123957;-71
2021/01/27 03:39:15;;;;;;;5.78;3.03;;;;;;;6.36;56.65;101282.16;4952857;28;113936;-70
2021/01/27 03:41:59;;;;;;;4.93;2.92;;;;;;;6.35;56.94;101275.19;4951229;28;112934;-70
2021/01/27 03:44:36;;;;;;;5.68;3.00;;;;;;;6.35;56.94;101274.34;4951595;28;124340;-71
2021/01/27 03:47:12;;;;;;;5.43;3.00;;;;;;;6.35;56.86;101259.41;4952802;28;124324;-70
2021/01/27 03:49:51;;;;;;;4.43;2.63;;;;;;;6.34;57.04;101257.66;4950820;28;113267;-71
2021/01/27 03:52:27;;;;;;;4.00;2.80;;;;;;;6.34;57.17;101249.78;4951910;28;113060;-70
2021/01/27 03:55:02;;;;;;;5.28;2.80;;;;;;;6.35;56.90;101248.88;4948892;28;123803;-70
2021/01/27 03:57:35;;;;;;;5.50;2.65;;;;;;;6.36;57.04;101245.34;4955735;28;123678;-71
2021/01/27 04:00:06;;;;;;;6.18;2.85;;;;;;;6.37;57.07;101240.97;4954481;28;114354;-71
2021/01/27 04:02:38;;;;;;;5.93;2.85;;;;;;;6.37;56.86;101239.19;4955978;28;114719;-70
2021/01/27 04:05:05;;;;;;;4.50;2.70;;;;;;;6.39;56.91;101234.75;4945971;28;123506;-70
2021/01/27 04:07:32;;;;;;;4.82;2.90;;;;;;;6.38;56.99;101227.75;4955611;28;124652;-71
2021/01/27 04:09:59;;;;;;;6.18;2.90;;;;;;;6.38;57.30;101217.22;4943350;28;114115;-71
2021/01/27 04:12:25;;;;;;;4.65;2.80;;;;;;;6.38;57.07;101217.22;4950918;28;115198;-70
2021/01/27 04:14:51;;;;;;;6.32;3.20;;;;;;;6.39;57.27;101218.97;4955450;28;123744;-71
2021/01/27 04:17:24;;;;;;;4.45;2.88;;;;;;;6.41;57.06;101211.91;4954132;28;123976;-71
2021/01/27 04:19:51;;;;;;;4.45;3.00;;;;;;;6.42;57.21;101213.66;4963706;28;113070;-70
2021/01/27 04:22:18;;;;;;;5.90;3.00;;;;;;;6.41;57.36;101206.66;4956220;28;113452;-71
2021/01/27 04:24:45;;;;;;;4.50;3.05;;;;;;;6.41;57.44;101217.19;4958911;28;124282;-71
2021/01/27 04:27:12;;;;;;;4.75;3.28;;;;;;;6.43;57.32;101209.25;4957260;28;123796;-71
2021/01/27 04:29:39;;;;;;;7.30;3.20;;;;;;;6.42;57.14;101213.66;4954463;28;113656;-71
2021/01/27 04:32:05;;;;;;;9.13;3.28;;;;;;;6.42;57.67;101213.66;4961117;28;114597;-71
2021/01/27 04:34:34;;;;;;;7.00;3.30;;;;;;;6.43;57.75;101220.63;4956067;28;124586;-71
2021/01/27 04:37:02;;;;;;;4.85;2.80;;;;;;;6.41;57.35;101206.66;4956815;28;123526;-71
2021/01/27 04:39:28;;;;;;;6.68;3.17;;;;;;;6.41;57.56;101188.25;4956270;28;114398;-71
2021/01/27 04:41:56;;;;;;;5.95;3.30;;;;;;;6.39;57.58;101182.16;4966144;28;112910;-71
2021/01/27 04:44:23;;;;;;;5.65;3.28;;;;;;;6.37;57.91;101183.94;4937816;28;125008;-70
2021/01/27 04:47:18;;;;;;;6.53;3.38;;;;;;;6.34;57.83;101184.00;4956785;28;123264;-70
2021/01/27 04:49:58;;;;;;;4.75;3.10;;;;;;;6.34;57.89;101170.00;4939111;28;113426;-70
2021/01/27 04:52:57;;;;;;;5.53;3.33;;;;;;;6.32;57.76;101154.25;4957383;28;114415;-70
2021/01/27 04:55:37;;;;;;;6.97;3.60;;;;;;;6.32;57.99;101154.25;4952772;28;124042;-70
2021/01/27 04:58:42;;;;;;;4.53;3.50;;;;;;;6.29;58.27;101149.06;4940410;28;124256;-70
2021/01/27 05:01:30;;;;;;;7.07;3.20;;;;;;;6.27;58.47;101150.84;4955452;28;115653;-71
2021/01/27 05:04:23;;;;;;;7.13;3.20;;;;;;;6.24;58.38;101140.41;4954305;28;115608;-71
2021/01/27 05:06:55;;;;;;;5.78;3.20;;;;;;;6.22;58.33;101131.69;4960350;28;124008;-70
2021/01/27 05:09:45;;;;;;;6.30;3.58;;;;;;;6.20;58.67;101109.81;4954197;28;123803;-71
2021/01/27 05:12:15;;;;;;;6.60;3.25;;;;;;;6.18;58.70;101111.63;4957585;28;114387;-71
2021/01/27 05:14:46;;;;;;;4.40;3.10;;;;;;;6.16;58.81;101110.75;4939551;28;113578;-71
2021/01/27 05:17:17;;;;;;;4.97;3.38;;;;;;;6.14;58.86;101102.03;4955540;28;124689;-70
2021/01/27 05:19:45;;;;;;;4.75;3.10;;;;;;;6.14;58.98;101102.03;4953772;28;124312;-70
2021/01/27 05:22:13;;;;;;;9.45;3.65;;;;;;;6.12;59.01;101094.22;4953844;28;114067;-70
2021/01/27 05:24:42;;;;;;;5.15;3.00;;;;;;;6.09;58.93;101082.91;4961298;28;113591;-70
2021/01/27 05:27:16;;;;;;;5.47;3.35;;;;;;;6.06;59.36;101082.97;4949574;28;124062;-70
2021/01/27 05:30:03;;;;;;;5.20;3.45;;;;;;;6.01;58.86;101091.81;4954497;28;122830;-71
2021/01/27 05:32:49;;;;;;;5.90;3.33;;;;;;;5.99;59.10;101088.38;4955484;28;113377;-70
2021/01/27 05:35:37;;;;;;;4.78;3.60;;;;;;;5.99;59.36;101093.63;4954639;22;113812;-70
2021/01/27 05:38:26;;;;;;;4.65;3.45;;;;;;;5.96;59.46;101096.31;4971631;28;124319;-70
2021/01/27 05:41:04;;;;;;;5.65;3.55;;;;;;;5.97;59.44;101100.69;4970287;28;124086;-70
2021/01/27 05:43:32;;;;;;;5.28;3.33;;;;;;;5.99;59.64;101092.72;4969878;28;114651;-70
2021/01/27 05:46:14;;;;;;;5.45;3.47;;;;;;;5.98;59.71;101091.88;4945703;28;114293;-69
2021/01/27 05:48:45;;;;;;;5.80;3.38;;;;;;;5.98;59.18;101081.38;4936011;28;124237;-69
2021/01/27 05:51:33;;;;;;;6.13;3.70;;;;;;;5.96;59.47;101077.91;4953764;28;124620;-69
2021/01/27 05:54:20;;;;;;;4.88;3.20;;;;;;;5.94;59.41;101066.53;4950425;28;114394;-70
2021/01/27 05:56:46;;;;;;;5.10;3.40;;;;;;;5.93;59.44;101063.94;4950532;28;115627;-70
2021/01/27 05:59:25;;;;;;;5.00;3.60;;;;;;;5.90;59.51;101051.72;4949944;28;124112;-70
2021/01/27 06:01:59;;;;;;;6.70;4.05;;;;;;;5.88;59.57;101048.28;4952304;28;124259;-70
2021/01/27 06:04:29;;;;;;;5.30;3.50;;;;;;;5.87;59.59;101040.41;4949843;28;114368;-70
2021/01/27 06:07:06;;;;;;;4.90;3.55;;;;;;;5.86;59.87;101034.31;4953470;28;114224;-69
2021/01/27 06:09:41;;;;;;;5.35;3.80;;;;;;;5.85;59.80;101037.81;4950217;28;124688;-70
2021/01/27 06:12:11;;;;;;;;;;;;;;;5.83;59.74;101045.72;4954477;28;123083;-69
2021/01/27 06:14:39;;;;;;;4.60;3.17;;;;;;;5.84;59.58;101042.22;4935164;28;112790;-70
2021/01/27 06:17:25;;;;;;;4.78;3.42;;;;;;;5.80;60.14;101050.19;4952579;28;113940;-70
2021/01/27 06:20:06;;;;;;;4.68;3.30;;;;;;;5.79;60.04;101051.09;4930870;28;123974;-70
2021/01/27 06:22:44;;;;;;;6.30;3.72;;;;;;;5.77;60.24;101035.34;4952857;28;124475;-70
2021/01/27 06:25:24;;;;;;;6.40;3.90;;;;;;;5.77;60.07;101043.25;4944121;28;114450;-70
2021/01/27 06:28:14;;;;;;;4.97;3.67;;;;;;;5.78;60.42;101046.72;4947240;28;113686;-70
2021/01/27 06:31:09;;;;;;;5.53;3.80;;;;;;;5.78;60.44;101036.22;4948519;28;123070;-70
2021/01/27 06:33:56;;;;;;;6.40;3.97;;;;;;;5.80;60.11;101034.41;4947696;28;122606;-69
2021/01/27 06:36:41;;;;;;;5.97;3.63;;;;;;;5.81;60.38;101026.50;4934253;28;113688;-70
2021/01/27 06:39:32;;;;;;;6.60;3.55;;;;;;;5.82;60.45;101032.63;4953480;28;114000;-69
2021/01/27 06:42:08;;;;;;;7.57;3.92;;;;;;;5.80;60.64;101040.56;4949526;28;124805;-70
2021/01/27 06:45:02;;;;;;;5.90;3.72;;;;;;;5.78;60.71;101031.84;4950382;28;124161;-70
2021/01/27 06:48:10;;;;;;;5.57;4.22;;;;;;;5.78;60.37;101030.97;4955009;28;114253;-70
2021/01/27 06:50:49;;;;;;;6.65;3.97;;;;;;;5.77;60.39;101029.25;4894752;28;114188;-70
2021/01/27 06:53:42;;;;;;;8.10;3.92;;;;;;;5.76;60.67;101032.75;4916403;28;124628;-70
2021/01/27 06:56:28;;;;;;;5.78;3.90;;;;;;;5.79;60.90;101032.69;4933169;28;124247;-69
2021/01/27 06:59:20;;;;;;;5.57;3.78;;;;;;;5.79;60.87;101037.97;4929340;28;113961;-69
2021/01/27 07:02:00;;;;;;;6.40;3.72;;;;;;;5.82;60.89;101037.88;4957320;28;113853;-69
2021/01/27 07:04:52;;;;;;;5.03;3.80;;;;;;;5.83;60.87;101037.84;4951345;28;123588;-69
2021/01/27 07:07:52;;;;;;;5.35;3.90;;;;;;;5.85;61.03;101043.06;4950227;28;124407;-69
2021/01/27 07:10:40;;;;;;;8.57;3.95;;;;;;;5.85;61.19;101032.56;4948874;28;114896;-69
2021/01/27 07:13:32;;;;;;;7.10;4.20;;;;;;;5.85;60.88;101016.78;4932545;28;113134;-70
2021/01/27 07:16:37;;;;;;;6.97;4.30;;;;;;;5.89;61.03;101028.09;4947634;28;123620;-70
2021/01/27 07:19:15;;;;;;;6.18;3.88;;;;;;;5.92;61.01;101031.53;4947149;28;123832;-71
2021/01/27 07:22:03;;;;;;;6.05;4.32;;;;;;;5.93;61.06;101030.59;4934641;28;114413;-70
2021/01/27 07:24:39;;;;;;;5.55;3.80;;;;;;;5.95;61.20;101023.63;4930985;28;113611;-70
2021/01/27 07:27:10;;;;;;;;;;;;;;;5.97;61.13;101027.06;4942895;28;122871;-69
2021/01/27 07:30:01;;;;;;;4.57;3.80;;;;;;;6.01;60.91;101023.47;4932790;28;123474;-70
2021/01/27 07:32:48;;;;;;;6.30;3.90;;;;;;;6.00;61.22;101016.47;4949835;28;113169;-69
2021/01/27 07:35:32;;;;;;;6.32;4.07;;;;;;;6.02;60.97;101001.50;4945550;28;96884;-70
2021/01/27 07:38:04;;;;;;;5.65;4.03;;;;;;;6.06;61.18;100993.56;4930369;28;123950;-69
2021/01/27 07:40:48;;;;;;;5.97;3.80;;;;;;;6.07;61.71;100993.53;4947982;28;124191;-70
2021/01/27 07:43:23;;;;;;;6.50;4.25;;;;;;;6.09;61.34;100998.75;4946257;28;115224;-71
2021/01/27 07:45:53;;;;;;;5.13;3.90;;;;;;;6.11;61.23;101003.06;4932678;28;114848;-71
2021/01/27 07:48:24;;;;;;;6.03;4.05;;;;;;;6.14;61.35;101007.38;4923804;28;124393;-71
2021/01/27 07:50:54;;;;;;;6.25;4.15;;;;;;;6.16;61.43;101016.09;4951688;28;124275;-70
2021/01/27 07:53:37;;;;;;;5.32;3.92;;;;;;;6.17;61.37;101009.94;4932743;28;113656;-71
2021/01/27 07:56:17;;;;;;;5.85;4.10;;;;;;;6.18;61.47;101015.19;4953208;28;113997;-70
2021/01/27 07:58:52;;;;;;;4.68;3.80;;;;;;;6.21;61.45;101024.75;4930077;28;124305;-70
2021/01/27 08:01:41;;;;;;;4.70;4.00;;;;;;;6.22;61.45;101026.50;4951852;28;126255;-70
2021/01/27 08:04:44;;;;;;;4.90;3.92;;;;;;;6.24;61.64;101022.06;4950446;28;114550;-71
2021/01/27 08:07:42;;;;;;;6.50;3.72;;;;;;;6.24;61.39;101015.03;4930900;28;113891;-71
2021/01/27 08:10:33;;;;;;;4.60;3.83;;;;;;;6.25;61.70;101005.34;4921696;28;124346;-70
2021/01/27 08:13:07;;;;;;;5.22;4.50;;;;;;;6.26;61.69;101001.84;4952242;28;123725;-71
2021/01/27 08:15:44;;;;;;;6.15;4.05;;;;;;;6.24;61.86;100993.97;4988754;22;114846;-71
2021/01/27 08:18:19;;;;;;;5.63;3.88;;;;;;;6.26;61.83;100991.31;4973078;28;113835;-70
2021/01/27 08:21:07;;;;;;;5.13;4.03;;;;;;;6.26;61.72;100986.06;4950192;28;123609;-70
2021/01/27 08:23:54;;;;;;;4.60;3.75;;;;;;;6.28;61.79;100973.72;4956408;28;123694;-72
2021/01/27 08:26:59;;;;;;;4.60;3.80;;;;;;;6.29;61.77;100969.31;4954223;28;113264;-70
2021/01/27 08:29:34;;;;;;;5.85;4.13;;;;;;;6.31;62.07;100973.66;4970961;28;112327;-72
2021/01/27 08:32:30;;;;;;;5.18;4.03;;;;;;;6.31;62.16;100984.19;4981285;28;125080;-71
2021/01/27 08:35:09;;;;;;;4.75;4.18;;;;;;;6.31;61.91;100973.66;4987750;28;124568;-71
2021/01/27 08:37:41;;;;;;;5.15;4.13;;;;;;;6.35;62.04;100975.31;4983620;28;115128;-70
2021/01/27 08:40:21;;;;;;;6.90;4.43;;;;;;;6.36;62.03;100977.03;4982122;28;114884;-71
2021/01/27 08:42:51;;;;;;;5.38;4.47;;;;;;;6.38;62.14;100972.56;4940113;28;123931;-71
2021/01/27 08:45:29;;;;;;;5.30;4.40;;;;;;;6.38;61.92;100975.22;4976416;28;123620;-70
2021/01/27 08:48:06;;;;;;;4.97;4.43;;;;;;;6.36;62.17;100971.75;4969358;28;113697;-71
2021/01/27 08:50:52;;;;;;;5.05;4.35;;;;;;;6.39;62.15;100971.69;4958355;28;113948;-71
2021/01/27 08:53:21;;;;;;;;;;;;;;;6.41;61.86;100975.16;4965438;28;123742;-70
2021/01/27 08:55:47;;;;;;;5.18;4.05;;;;;;;6.43;62.19;100983.84;4973955;28;124131;-70
2021/01/27 08:58:28;;;;;;;6.45;4.55;;;;;;;6.42;62.10;100976.88;4957755;28;113482;-72
2021/01/27 09:01:22;;;;;;;6.40;4.40;;;;;;;6.45;62.42;100975.06;4959997;28;114158;-70
2021/01/27 09:03:52;;;;;;;6.28;4.50;;;;;;;6.47;62.08;100981.16;4975250;28;123913;-70
2021/01/27 09:06:29;;;;;;;7.25;4.53;;;;;;;6.48;62.54;100980.22;4959344;28;122191;-70
2021/01/27 09:09:38;;;;;;;5.68;4.55;;;;;;;6.52;62.52;100981.91;4978591;28;114947;-70
2021/01/27 09:12:09;;;;;;;7.07;4.47;;;;;;;6.55;62.57;100987.06;4973478;28;112187;-71
2021/01/27 09:14:36;;;;;;;6.55;4.47;;;;;;;6.60;62.71;100985.19;4966441;28;122903;-70
2021/01/27 09:17:06;;;;;;;5.20;4.43;;;;;;;6.62;62.50;100988.66;4978527;28;123613;-71
2021/01/27 09:19:36;;;;;;;6.22;4.57;;;;;;;6.65;62.39;100993.84;4947742;28;114124;-71
2021/01/27 09:22:22;;;;;;;6.03;5.32;;;;;;;6.67;62.39;100981.50;4938222;28;116059;-70
2021/01/27 09:24:55;;;;;;;5.90;4.75;;;;;;;6.69;62.61;100984.97;4975027;28;124444;-71
2021/01/27 09:27:30;;;;;;;5.85;4.50;;;;;;;6.71;62.64;100983.13;4963788;28;124095;-72
2021/01/27 09:30:07;;;;;;;5.13;4.63;;;;;;;6.73;62.36;100970.81;4968533;28;116933;-71
2021/01/27 09:32:38;;;;;;;5.82;4.60;;;;;;;6.74;62.48;100977.81;4980433;28;115102;-70
2021/01/27 09:35:16;;;;;;;6.57;4.70;;;;;;;6.75;62.44;100979.53;4983072;28;125120;-71
2021/01/27 09:38:00;;;;;;;6.47;4.93;;;;;;;6.77;62.72;100988.22;4973352;28;125133;-72
2021/01/27 09:40:31;;;;;;;5.90;5.05;;;;;;;6.79;62.62;100991.69;4966897;28;113267;-71
2021/01/27 09:43:11;;;;;;;8.70;5.53;;;;;;;6.80;62.76;100998.69;4967693;28;114152;-71
2021/01/27 09:45:48;;;;;;;6.40;5.13;;;;;;;6.81;62.74;101005.66;4968109;28;124203;-71
2021/01/27 09:48:38;;;;;;;6.35;5.32;;;;;;;6.81;62.69;101010.94;4975620;28;124004;-71
2021/01/27 09:51:06;;;;;;;7.13;5.28;;;;;;;6.86;62.68;101002.94;4956994;28;114111;-72
2021/01/27 09:53:40;;;;;;;6.70;4.93;;;;;;;6.89;62.95;101012.50;4983123;28;114576;-71
2021/01/27 09:56:14;;;;;;;6.85;5.30;;;;;;;6.92;62.67;101012.44;4962585;28;124305;-71
2021/01/27 09:58:42;;;;;;;6.93;4.70;;;;;;;6.93;62.88;101014.13;4961282;28;123171;-71
2021/01/27 10:01:43;;;;;;;6.43;5.25;;;;;;;6.93;62.71;101024.66;4975002;28;114092;-70
2021/01/27 10:04:14;;;;;;;5.78;4.85;;;;;;;6.95;63.11;101022.84;4961721;28;112748;-70
2021/01/27 10:06:51;;;;;;;7.00;5.05;;;;;;;6.96;62.76;101029.88;4963594;28;123644;-70
2021/01/27 10:09:22;;;;;;;6.40;5.00;;;;;;;6.98;63.15;101022.78;4961948;28;124075;-71
2021/01/27 10:12:02;;;;;;;6.70;5.32;;;;;;;7.00;62.72;101031.50;4958003;28;114549;-72
2021/01/27 10:14:32;;;;;;;6.10;5.15;;;;;;;7.03;63.26;101036.69;4977786;28;114392;-71
2021/01/27 10:17:04;;;;;;;5.72;5.03;;;;;;;7.05;62.88;101040.16;4954126;28;122615;-68
2021/01/27 10:19:43;;;;;;;6.32;5.07;;;;;;;7.07;62.77;101038.34;4957288;28;123386;-70
2021/01/27 10:22:10;;;;;;;6.38;5.05;;;;;;;7.08;62.74;101029.50;4974700;28;115746;-70
2021/01/27 10:24:43;;;;;;;5.60;4.72;;;;;;;7.10;63.32;101027.72;4973333;28;115088;-71
2021/01/27 10:27:34;;;;;;;6.30;5.25;;;;;;;7.10;62.79;101017.19;4959258;28;123706;-71
2021/01/27 10:30:31;;;;;;;9.27;5.80;;;;;;;7.14;62.87;101018.84;4961555;28;121850;-71
2021/01/27 10:32:57;;;;;;;7.15;5.63;;;;;;;7.16;63.08;101030.19;4964867;28;113756;-71
2021/01/27 10:35:24;;;;;;;7.25;5.78;;;;;;;7.17;63.04;101029.25;4974271;28;114080;-71
2021/01/27 10:38:08;;;;;;;8.20;5.68;;;;;;;7.19;63.28;101030.06;4974261;28;123243;-71
2021/01/27 10:40:35;;;;;;;8.60;5.53;;;;;;;7.21;63.10;101020.41;4961033;28;123950;-71
2021/01/27 10:43:10;;;;;;;7.60;6.30;;;;;;;7.25;63.52;101025.56;4972608;28;114322;-72
2021/01/27 10:45:44;;;;;;;7.18;5.60;;;;;;;7.28;63.18;101014.94;4977699;28;114101;-72
2021/01/27 10:48:12;;;;;;;7.90;6.07;;;;;;;7.31;63.12;101013.09;4969412;28;122843;-71
2021/01/27 10:50:44;;;;;;;8.45;6.97;;;;;;;7.33;63.24;101021.81;4959590;28;123680;-71
2021/01/27 10:53:29;;;;;;;8.73;6.63;;;;;;;7.36;63.16;101018.22;4972399;28;114272;-72
2021/01/27 10:55:56;;;;;;;8.63;6.97;;;;;;;7.40;63.47;101011.94;4976935;28;113992;-71
2021/01/27 10:58:23;;;;;;;10.85;7.68;;;;;;;7.43;63.57;101014.50;4970415;28;123786;-70
2021/01/27 11:00:51;;;;;;;10.25;7.60;;;;;;;7.48;63.38;101006.44;4959160;28;121635;-71
2021/01/27 11:03:18;;;;;;;11.77;7.90;;;;;;;7.51;63.81;101007.22;4970254;28;113909;-71
2021/01/27 11:05:46;;;;;;;9.88;8.07;;;;;;;7.53;63.51;101015.94;4956976;28;114497;-70
2021/01/27 11:08:23;;;;;;;12.80;9.05;;;;;;;7.58;63.36;101014.03;4956212;28;124354;-70
2021/01/27 11:10:54;;;;;;;11.25;8.38;;;;;;;7.62;63.76;101020.06;4956908;28;124308;-70
2021/01/27 11:13:21;;;;;;;12.68;9.20;;;;;;;7.65;63.37;101014.72;4967843;28;114558;-71
2021/01/27 11:15:48;;;;;;;13.75;9.40;;;;;;;7.67;63.62;101017.31;4972452;28;113864;-71
2021/01/27 11:18:16;;;;;;;11.57;9.07;;;;;;;7.71;63.48;101013.69;4974115;28;124091;-71
2021/01/27 11:20:43;;;;;;;13.23;9.95;;;;;;;7.72;63.55;101010.13;4968531;28;124762;-70
2021/01/27 11:23:10;;;;;;;13.45;10.45;;;;;;;7.74;63.59;101013.56;4972186;28;113445;-71
2021/01/27 11:25:36;;;;;;;12.50;10.05;;;;;;;7.75;63.65;101004.75;4975260;28;114285;-71
2021/01/27 11:28:03;;;;;;;15.65;10.27;;;;;;;7.79;63.83;101006.38;4971742;28;123081;-70
2021/01/27 11:30:30;;;;;;;15.18;10.93;;;;;;;7.81;63.59;101004.56;4969638;28;125082;-70
2021/01/27 11:32:57;;;;;;;14.63;10.75;;;;;;;7.83;63.65;100999.25;4968644;28;114430;-70
2021/01/27 11:35:25;;;;;;;16.23;12.48;;;;;;;7.85;63.45;101006.19;4980354;22;114285;-72
2021/01/27 11:37:52;;;;;;;13.95;11.02;;;;;;;7.87;63.47;101004.38;4974551;28;123760;-72
2021/01/27 11:40:21;;;;;;;16.38;11.80;;;;;;;7.90;63.88;101009.56;4975882;28;124668;-72
2021/01/27 11:42:49;;;;;;;16.05;12.05;;;;;;;7.93;63.68;100998.03;4982130;28;114592;-72
2021/01/27 11:45:17;;;;;;;17.80;12.23;;;;;;;7.96;63.77;101003.22;4994631;28;114802;-71
2021/01/27 11:47:44;;;;;;;17.30;13.05;;;;;;;7.97;63.65;100995.28;4991174;28;123433;-71
2021/01/27 11:50:12;;;;;;;17.90;12.55;;;;;;;8.00;63.65;100994.28;4993938;28;125496;-71
2021/01/27 11:52:39;;;;;;;18.17;12.98;;;;;;;8.01;63.53;100984.63;4977906;28;115393;-71
2021/01/27 11:55:06;;;;;;;21.70;13.93;;;;;;;8.03;63.85;100993.34;4975893;28;113544;-72
2021/01/27 11:57:33;;;;;;;20.95;13.80;;;;;;;8.05;63.73;101007.34;4953924;28;122990;-71
2021/01/27 12:00:00;;;;;;;21.58;14.63;;;;;;;8.06;63.84;101009.06;4963246;28;124348;-72
2021/01/27 12:02:26;;;;;;;21.38;14.80;;;;;;;8.08;63.64;101007.22;4956450;28;114926;-72